Terminal Aerodrome Forecast
Issued by NWS

Home | Current Version | Previous Version | Text Only | Print | Product List | Glossary On
Versions: 1 2 3 4 5 6 7 8 9 10 11 12 13 14 15 16 17 18 19 20 21 22 23 24 25 26 27 28 29 30 31 32
000
FTUS44 KSJT 151733
TAFSOA
TAF
KSOA 151733Z 1518/1618 18013G21KT P6SM FEW250
     FM160200 17011KT P6SM BKN250
     FM161000 18009KT P6SM BKN015
     FM161600 18012G19KT P6SM FEW030=

USA.gov is the U.S. government's official web portal to all federal, state and local government web resources and services.